MAPA DE AEROPUERTO

INFORMACIÓN METAR y TAF

METAR FOR LEVC
ADDS - METARS form results

(1955 UTC 27 January 2021)
Data provider http://aviationweather.gov/metar/data/
 
Forecast for: LEVC (VALENCIA (CIV/MI, ES)
Text: TAF LEVC 271100Z 2712/2812 29010KT CAVOK TX25/2712Z TN12/2806Z
Forecast period: 1200 UTC 27 January 2021 to 1200 UTC 28 January 2021
Forecast type: FROM: standard forecast or significant change
Winds: from the WNW (290 degrees) at 12 MPH (10 knots; 5.1 m/s)
Visibility: 6 or more miles (10+ km)
Ceiling: unknown
Clouds: missing
Weather: no significant weather forecast for this period
Text: TEMPO 2712/2720 VRB03KT
Forecast period: 1200 to 2000 UTC 27 January 2021
Forecast type: TEMPORARY: The following changes expected for less than half the time period
Winds: variable direction winds at 3 MPH (3 knots; 1.5 m/s)
Visibility: missing
Ceiling: unknown
Clouds: missing
Weather: no significant weather forecast for this period